Aviation Digital Data Service (ADDS)

Output produced by METARs form (1038 UTC 01 April 2015)
found at http://aviationweather.gov/adds/metars/
 
METAR text: KSPB 010953Z AUTO 00000KT 10SM BKN048 BKN060 OVC100 06/04 A3029 RMK AO2 RAE29 SLP257 P0001 T00610039 $
Conditions at: KSPB (SCAPPOOSE , OR, US) observed 0953 UTC 01 April 2015
Temperature: 6.1°C (43°F)
Dewpoint: 3.9°C (39°F) [RH = 86%]
Pressure (altimeter): 30.29 inches Hg (1025.8 mb)
[Sea-level pressure: 1025.7 mb]
Winds: calm
Visibility: 10 or more miles (16+ km)
Ceiling: 4800 feet AGL
Clouds: broken clouds at 4800 feet AGL
broken clouds at 6000 feet AGL
overcast cloud deck at 10000 feet AGL
Weather:
SOME DATA ABOVE MAY BE INACCURATE!!!
"$" is an indication the sensor requires maintenance

METAR text: KSPB 010853Z AUTO 28005KT 10SM -RA BKN042 OVC050 07/03 A3029 RMK AO2 RAB18 SLP257 P0001 60002 T00670033 51009 $
Conditions at: KSPB (SCAPPOOSE , OR, US) observed 0853 UTC 01 April 2015
Temperature: 6.7°C (44°F)
Dewpoint: 3.3°C (38°F) [RH = 79%]
Pressure (altimeter): 30.29 inches Hg (1025.8 mb)
[Sea-level pressure: 1025.7 mb]
Winds: from the W (280 degrees) at 6 MPH (5 knots; 2.6 m/s)
Visibility: 10 or more miles (16+ km)
Ceiling: 4200 feet AGL
Clouds: broken clouds at 4200 feet AGL
overcast cloud deck at 5000 feet AGL
Weather: -RA  (light rain)
SOME DATA ABOVE MAY BE INACCURATE!!!
"$" is an indication the sensor requires maintenance